createdAt,value
2023-01-08T00:02:43.820Z,12.40
2023-01-08T00:06:46.596Z,12.30
2023-01-08T00:10:56.100Z,12.30
2023-01-08T00:15:00.421Z,12.40
2023-01-08T00:19:05.803Z,12.40
2023-01-08T00:23:18.248Z,12.40
2023-01-08T00:27:23.976Z,12.30
2023-01-08T00:31:26.762Z,12.30
2023-01-08T00:35:30.115Z,12.30
2023-01-08T00:39:33.032Z,12.30
2023-01-08T00:44:04.973Z,12.30
2023-01-08T00:48:07.682Z,12.30
2023-01-08T00:52:10.395Z,12.20
2023-01-08T00:56:13.669Z,12.20
2023-01-08T01:00:18.180Z,12.20
2023-01-08T01:04:22.518Z,12.20
2023-01-08T01:08:25.933Z,12.20
2023-01-08T01:12:31.021Z,12.20
2023-01-08T01:16:34.305Z,12.20
2023-01-08T01:20:42.447Z,12.20
2023-01-08T01:24:45.228Z,12.20
2023-01-08T01:28:55.485Z,12.20
2023-01-08T01:32:58.185Z,12.20
2023-01-08T01:37:01.250Z,12.20
2023-01-08T01:41:04.537Z,12.20
2023-01-08T01:45:17.823Z,12.20
2023-01-08T01:49:22.874Z,12.20
2023-01-08T01:53:31.140Z,12.20
2023-01-08T01:57:34.242Z,12.20
2023-01-08T02:01:38.001Z,12.10
2023-01-08T02:05:43.835Z,12.20
2023-01-08T02:10:01.787Z,12.10
2023-01-08T02:14:18.188Z,12.10
2023-01-08T02:18:37.856Z,12.10
2023-01-08T02:23:02.377Z,12.10
2023-01-08T02:27:09.602Z,12.10
2023-01-08T02:31:13.296Z,12.00
2023-01-08T02:35:16.255Z,12.00
2023-01-08T02:39:22.505Z,12.00
2023-01-08T02:43:42.495Z,12.10
2023-01-08T02:52:13.219Z,12.10
2023-01-08T02:56:20.974Z,12.10
2023-01-08T03:00:24.404Z,12.00
2023-01-08T03:04:30.604Z,12.00
2023-01-08T03:08:36.031Z,12.00
2023-01-08T03:12:41.700Z,12.00
2023-01-08T03:17:23.737Z,12.10
2023-01-08T03:21:27.303Z,12.10
2023-01-08T03:25:30.602Z,12.00
2023-01-08T03:29:35.667Z,12.00
2023-01-08T03:33:39.194Z,12.00
2023-01-08T03:37:46.290Z,11.80
2023-01-08T03:41:49.954Z,11.80
2023-01-08T03:45:58.338Z,11.70
2023-01-08T03:50:06.561Z,11.60
2023-01-08T03:54:13.853Z,11.60
2023-01-08T03:58:17.483Z,11.50
2023-01-08T04:02:20.480Z,11.50
2023-01-08T04:06:23.340Z,11.50
2023-01-08T04:10:27.072Z,11.50
2023-01-08T04:14:29.817Z,11.50
2023-01-08T04:18:32.550Z,11.50
2023-01-08T04:22:35.668Z,11.20
2023-01-08T04:26:39.116Z,11.00
2023-01-08T04:30:41.852Z,10.80
2023-01-08T04:34:44.802Z,10.60
2023-01-08T04:38:47.511Z,10.50
2023-01-08T04:42:50.207Z,10.30
2023-01-08T04:46:52.944Z,10.10
2023-01-08T04:51:04.365Z,10.10
2023-01-08T04:55:07.580Z,10.10
2023-01-08T04:59:10.295Z,10.10
2023-01-08T05:03:13.486Z,10.00
2023-01-08T05:07:16.574Z,10.00
2023-01-08T05:11:19.400Z,10.00
2023-01-08T05:15:22.150Z,9.90
2023-01-08T05:19:26.176Z,9.90
2023-01-08T05:23:30.148Z,9.80
2023-01-08T05:27:32.932Z,9.80
2023-01-08T05:31:36.004Z,9.60
2023-01-08T05:35:42.817Z,9.60
2023-01-08T05:39:45.997Z,9.60
2023-01-08T05:43:48.733Z,9.70
2023-01-08T05:47:51.487Z,9.70
2023-01-08T05:51:54.322Z,9.80
2023-01-08T05:56:02.211Z,9.80
2023-01-08T06:00:07.304Z,9.80
2023-01-08T06:04:14.342Z,9.80
2023-01-08T06:08:17.132Z,9.80
2023-01-08T06:12:19.961Z,9.80
2023-01-08T06:16:22.775Z,9.80
2023-01-08T06:20:25.542Z,9.80
2023-01-08T06:24:28.239Z,9.80
2023-01-08T06:28:32.914Z,9.80
2023-01-08T06:32:35.682Z,9.70
2023-01-08T06:36:38.489Z,9.70
2023-01-08T06:40:41.264Z,9.60
2023-01-08T06:44:44.187Z,9.60
2023-01-08T06:48:46.915Z,9.60
2023-01-08T06:52:54.343Z,9.50
2023-01-08T06:56:57.209Z,9.50
2023-01-08T07:01:00.045Z,9.50
2023-01-08T07:05:02.895Z,9.70
2023-01-08T07:09:05.647Z,10.00
2023-01-08T07:13:09.248Z,10.30
2023-01-08T07:17:12.044Z,10.60
2023-01-08T07:21:14.979Z,10.70
2023-01-08T07:25:17.745Z,10.90
2023-01-08T07:29:20.597Z,11.00
2023-01-08T07:33:23.546Z,11.10
2023-01-08T07:37:26.592Z,11.20
2023-01-08T07:41:29.420Z,11.30
2023-01-08T07:45:33.513Z,11.30
2023-01-08T07:49:36.188Z,11.40
2023-01-08T07:53:38.955Z,11.50
2023-01-08T07:57:41.714Z,11.60
2023-01-08T08:01:44.535Z,11.80
2023-01-08T08:05:47.508Z,12.00
2023-01-08T08:09:50.235Z,12.10
2023-01-08T08:13:54.697Z,12.30
2023-01-08T08:17:58.858Z,12.40
2023-01-08T08:22:01.808Z,12.10
2023-01-08T08:26:05.420Z,11.90
2023-01-08T08:30:08.976Z,11.80
2023-01-08T08:34:11.766Z,11.70
2023-01-08T08:38:15.283Z,11.60
2023-01-08T08:42:18.119Z,11.60
2023-01-08T08:46:21.070Z,11.70
2023-01-08T08:50:24.901Z,12.00
2023-01-08T08:54:28.760Z,12.30
2023-01-08T08:58:32.152Z,12.60
2023-01-08T09:02:35.185Z,12.80
2023-01-08T09:06:38.201Z,13.10
2023-01-08T09:10:44.601Z,13.30
2023-01-08T09:14:50.166Z,13.50
2023-01-08T09:18:52.970Z,13.60
2023-01-08T09:22:58.996Z,13.70
2023-01-08T09:27:01.736Z,13.80
2023-01-08T09:31:04.931Z,14.00
2023-01-08T09:35:08.149Z,14.10
2023-01-08T09:39:10.907Z,14.30
2023-01-08T09:43:18.441Z,14.50
2023-01-08T09:47:31.429Z,14.50
2023-01-08T09:51:36.477Z,14.70
2023-01-08T09:55:39.561Z,14.70
2023-01-08T09:59:43.262Z,14.70
2023-01-08T10:03:55.872Z,14.80
2023-01-08T10:07:59.333Z,14.70
2023-01-08T10:12:04.184Z,14.60
2023-01-08T10:16:11.275Z,14.60
2023-01-08T10:20:19.337Z,14.70
2023-01-08T10:24:33.956Z,14.60
2023-01-08T10:28:36.927Z,14.60
2023-01-08T10:32:39.742Z,14.50
2023-01-08T10:36:43.404Z,14.50
2023-01-08T10:40:49.504Z,14.50
2023-01-08T10:44:55.938Z,14.50
2023-01-08T10:49:02.678Z,14.40
2023-01-08T10:53:06.488Z,14.40
2023-01-08T10:57:22.630Z,14.50
2023-01-08T11:01:31.275Z,14.60
2023-01-08T11:05:36.635Z,14.80
2023-01-08T11:09:48.327Z,14.90
2023-01-08T11:14:00.016Z,14.90
2023-01-08T11:18:24.022Z,15.00
2023-01-08T11:22:28.018Z,15.00
2023-01-08T11:26:32.265Z,15.10
2023-01-08T11:30:38.678Z,15.10
2023-01-08T11:34:50.381Z,15.10
2023-01-08T11:38:53.198Z,15.10
2023-01-08T11:43:14.989Z,15.00
2023-01-08T11:47:34.275Z,15.00
2023-01-08T11:51:52.788Z,14.90
2023-01-08T11:56:11.898Z,14.80
2023-01-08T12:00:29.712Z,14.80
2023-01-08T12:04:47.383Z,14.70
2023-01-08T12:09:18.302Z,14.70
2023-01-08T12:13:58.365Z,14.70
2023-01-08T12:18:16.104Z,14.70
2023-01-08T12:22:56.009Z,14.60
2023-01-08T12:27:07.785Z,14.70
2023-01-08T12:31:20.263Z,14.70
2023-01-08T12:35:36.520Z,14.70
2023-01-08T12:39:50.374Z,14.60
2023-01-08T12:44:03.139Z,14.60
2023-01-08T12:48:22.835Z,14.50
2023-01-08T12:52:39.610Z,14.50
2023-01-08T12:56:51.275Z,14.30
2023-01-08T13:01:22.802Z,14.30
2023-01-08T13:05:25.491Z,14.30
2023-01-08T13:09:29.371Z,14.30
2023-01-08T13:13:35.046Z,14.20
2023-01-08T13:17:38.211Z,14.20
2023-01-08T13:21:50.914Z,14.20
2023-01-08T13:25:58.833Z,14.30
2023-01-08T13:30:02.122Z,14.30
2023-01-08T13:34:36.381Z,14.20
2023-01-08T13:38:43.329Z,14.10
2023-01-08T13:42:46.296Z,14.00
2023-01-08T13:46:57.816Z,14.00
2023-01-08T13:51:00.833Z,14.10
2023-01-08T13:55:06.385Z,14.10
2023-01-08T13:59:39.522Z,14.10
2023-01-08T14:03:47.902Z,14.10
2023-01-08T14:07:50.754Z,14.10
2023-01-08T14:11:58.523Z,14.10
2023-01-08T14:16:04.814Z,14.10
2023-01-08T14:20:12.557Z,14.10
2023-01-08T14:24:17.459Z,14.10
2023-01-08T14:28:22.817Z,14.00
2023-01-08T14:32:28.216Z,14.00
2023-01-08T14:36:32.104Z,14.00
2023-01-08T14:40:40.773Z,13.90
2023-01-08T14:44:46.122Z,13.90
2023-01-08T14:48:49.571Z,13.90
2023-01-08T14:52:55.276Z,13.80
2023-01-08T14:57:00.948Z,13.80
2023-01-08T15:01:09.024Z,13.80
2023-01-08T15:05:27.457Z,13.80
2023-01-08T15:09:35.403Z,13.80
2023-01-08T15:13:38.376Z,13.80
2023-01-08T15:17:41.481Z,13.80
2023-01-08T15:21:57.775Z,13.70
2023-01-08T15:26:04.290Z,13.70
2023-01-08T15:30:09.274Z,13.70
2023-01-08T15:34:12.082Z,13.70
2023-01-08T15:38:16.479Z,13.70
2023-01-08T15:42:47.656Z,13.70
2023-01-08T15:46:51.931Z,13.70
2023-01-08T15:50:54.741Z,13.70
2023-01-08T15:55:01.396Z,13.60
2023-01-08T15:59:04.224Z,13.60
2023-01-08T16:03:07.632Z,13.60
2023-01-08T16:07:10.558Z,13.60
2023-01-08T16:11:20.204Z,13.50
2023-01-08T16:15:24.161Z,13.50
2023-01-08T16:19:29.211Z,13.60
2023-01-08T16:23:35.556Z,13.50
2023-01-08T16:27:39.507Z,13.60
2023-01-08T16:31:46.657Z,13.50
2023-01-08T16:35:59.584Z,13.50
2023-01-08T16:40:02.995Z,13.60
2023-01-08T16:44:06.077Z,13.50
2023-01-08T16:48:10.179Z,13.50
2023-01-08T16:52:13.373Z,13.50
2023-01-08T16:56:16.560Z,13.50
2023-01-08T17:00:19.612Z,13.50
2023-01-08T17:04:22.434Z,13.50
2023-01-08T17:08:28.026Z,13.50
2023-01-08T17:12:31.353Z,13.50
2023-01-08T17:16:34.067Z,13.50
2023-01-08T17:20:36.907Z,13.50
2023-01-08T17:24:40.564Z,13.50
2023-01-08T17:28:43.863Z,13.50
2023-01-08T17:32:46.567Z,13.50
2023-01-08T17:36:49.248Z,13.50
2023-01-08T17:40:52.243Z,13.50
2023-01-08T17:44:57.720Z,13.50
2023-01-08T17:49:00.438Z,13.50
2023-01-08T17:53:03.294Z,13.50
2023-01-08T17:57:05.997Z,13.50
2023-01-08T18:01:14.038Z,13.50
2023-01-08T18:05:17.190Z,13.50
2023-01-08T18:09:20.551Z,13.50
2023-01-08T18:13:23.391Z,13.50
2023-01-08T18:17:26.277Z,13.50
2023-01-08T18:21:29.368Z,13.50
2023-01-08T18:25:32.349Z,13.50
2023-01-08T18:29:35.494Z,13.50
2023-01-08T18:33:39.710Z,13.40
2023-01-08T18:37:42.536Z,13.40
2023-01-08T18:42:04.302Z,13.30
2023-01-08T18:46:08.097Z,13.30
2023-01-08T18:50:11.950Z,13.30
2023-01-08T18:54:15.772Z,13.20
2023-01-08T18:58:18.935Z,13.20
2023-01-08T19:02:24.542Z,13.30
2023-01-08T19:06:36.013Z,13.20
2023-01-08T19:10:39.884Z,13.20
2023-01-08T19:14:43.619Z,13.20
2023-01-08T19:18:47.211Z,13.20
2023-01-08T19:22:54.173Z,13.20
2023-01-08T19:26:59.525Z,13.20
2023-01-08T19:31:03.158Z,13.20
2023-01-08T19:35:06.751Z,13.30
2023-01-08T19:39:11.368Z,13.30
2023-01-08T19:43:32.706Z,13.20
2023-01-08T19:47:35.772Z,13.20
2023-01-08T19:51:39.877Z,13.20
2023-01-08T19:55:42.627Z,13.20
2023-01-08T19:59:45.343Z,13.20
2023-01-08T20:03:48.430Z,13.10
2023-01-08T20:07:53.011Z,13.10
2023-01-08T20:11:56.010Z,13.20
2023-01-08T20:15:58.778Z,13.10
2023-01-08T20:20:01.524Z,13.00
2023-01-08T20:24:11.307Z,12.90
2023-01-08T20:28:13.981Z,12.80
2023-01-08T20:32:16.854Z,12.70
2023-01-08T20:36:22.075Z,12.70
2023-01-08T20:40:25.075Z,12.60
2023-01-08T20:44:31.571Z,12.70
2023-01-08T20:48:42.913Z,12.70
2023-01-08T20:52:49.549Z,12.60
2023-01-08T20:56:55.357Z,12.70
2023-01-08T21:01:12.568Z,12.70
2023-01-08T21:05:15.349Z,12.70
2023-01-08T21:09:18.726Z,12.70
2023-01-08T21:13:21.620Z,12.60
2023-01-08T21:17:24.375Z,12.60
2023-01-08T21:21:29.900Z,12.60
2023-01-08T21:25:34.950Z,12.50
2023-01-08T21:29:37.904Z,12.50
2023-01-08T21:33:41.385Z,12.50
2023-01-08T21:37:44.325Z,12.50
2023-01-08T21:42:05.433Z,12.40
2023-01-08T21:46:08.292Z,12.30
2023-01-08T21:50:12.279Z,12.20
2023-01-08T21:54:15.073Z,12.10
2023-01-08T21:58:17.915Z,12.10
2023-01-08T22:02:24.348Z,12.10
2023-01-08T22:06:27.820Z,12.00
2023-01-08T22:10:31.028Z,12.00
2023-01-08T22:14:37.398Z,12.00
2023-01-08T22:18:40.306Z,11.90
2023-01-08T22:22:47.067Z,11.80
2023-01-08T22:26:50.367Z,11.80
2023-01-08T22:30:53.120Z,11.80
2023-01-08T22:34:55.910Z,11.60
2023-01-08T22:38:58.590Z,11.70
2023-01-08T22:43:01.383Z,11.60
2023-01-08T22:47:06.377Z,11.60
2023-01-08T22:51:10.359Z,11.60
2023-01-08T22:55:13.238Z,11.60
2023-01-08T22:59:21.065Z,11.60
2023-01-08T23:03:24.650Z,11.60
2023-01-08T23:07:27.556Z,11.70
2023-01-08T23:11:30.523Z,11.80
2023-01-08T23:15:33.355Z,11.80
2023-01-08T23:19:37.206Z,11.90
2023-01-08T23:23:41.141Z,12.00
2023-01-08T23:27:44.948Z,12.10
2023-01-08T23:31:47.980Z,12.10
2023-01-08T23:35:50.865Z,12.00
2023-01-08T23:39:53.932Z,12.10
2023-01-08T23:44:00.613Z,12.10
2023-01-08T23:48:03.713Z,12.10
2023-01-08T23:52:06.518Z,12.10
2023-01-08T23:56:09.218Z,12.20
